« 冬の陣 富山県広域消防防災センター 2014/2/16 sun | トップページ | 定点 富山空港 2014/2/23 sun »

2014/02/20

定点 富山空港 2014/2/20 thu

外航のない木曜日。国会中継を聞きながら、まったりと河原時間。

RJNT 200100Z VRB02KT 9999 FEW030 BKN045 01/M05 Q1025

20140220_rjnt_00ja816a

20140220_rjnt_01ja816a

20140220_rjnt_02ja816a

20140220_rjnt_03ja816a

ANA883 RJTT-RJNT JA816A B787-881

20140220_rjnt_04ja6768

JA6768 B412 富山県消防防災

20140220_rjnt_05ja816a

20140220_rjnt_06ja816a

20140220_rjnt_07ja816a

ANA886 RJNT-RJTT JA816A B787-881

20140220_rjnt_08ja6193

JA6193 B204 AAK

RJNT 200400Z 20004KT 140V250 9999 FEW025 SCT050 04/M06 Q1024

20140220_rjnt_09ja6193

JA6193 B204 AAK

20140220_rjnt_10ja8595

20140220_rjnt_11ja8595

20140220_rjnt_12ja8595

ADO120 RJCC-RJNT JA8595 B737-54K

20140220_rjnt_13ja8595

20140220_rjnt_14ja8595

ADO121 RJNT-RJCC JA8595 B737-54K

20140220_rjnt_15ja8322

ANA885 RJTT-RJNT JA8322 B767-381

RJNT 200600Z VRB02KT 9999 FEW030 BKN045 04/M06 Q1023

20140220_rjnt_16ja8322

ANA888 RJNT-RJTT JA8322 B767-381

20140220_rjnt_17ja825a

20140220_rjnt_18ja825a

20140220_rjnt_19ja825a

ANA887 RJTT-RJNT JA825A B787-881

RJNT 200800Z 35006KT 9999 FEW030 SCT050 03/M04 Q1024

ANA     /882 JA8368
ANA881/884 JA8674
ANA883/886 JA816A
ANA885/888 JA8595
ANA887/890 JA825A
ANA889/892 JA8357
ANA891       JA602A

ADO120/121 JA8595

|

« 冬の陣 富山県広域消防防災センター 2014/2/16 sun | トップページ | 定点 富山空港 2014/2/23 sun »

富山空港」カテゴリの記事

コメント

コメントを書く



(ウェブ上には掲載しません)


コメントは記事投稿者が公開するまで表示されません。



トラックバック


この記事へのトラックバック一覧です: 定点 富山空港 2014/2/20 thu:

« 冬の陣 富山県広域消防防災センター 2014/2/16 sun | トップページ | 定点 富山空港 2014/2/23 sun »